sensor_id;sensor_type;location;lat;lon;timestamp;temperature;humidity
54264;DHT22;40178;53.042;6.406;2022-12-10T00:00:33;-2.20;99.90
54264;DHT22;40178;53.042;6.406;2022-12-10T00:02:59;-2.40;99.90
54264;DHT22;40178;53.042;6.406;2022-12-10T00:05:24;-2.20;99.90
54264;DHT22;40178;53.042;6.406;2022-12-10T00:07:50;-2.20;99.90
54264;DHT22;40178;53.042;6.406;2022-12-10T00:10:15;-2.30;99.90
54264;DHT22;40178;53.042;6.406;2022-12-10T00:12:41;-2.40;99.90
54264;DHT22;40178;53.042;6.406;2022-12-10T00:15:07;-2.40;99.90
54264;DHT22;40178;53.042;6.406;2022-12-10T00:17:33;-2.20;99.90
54264;DHT22;40178;53.042;6.406;2022-12-10T00:19:58;-2.20;99.90
54264;DHT22;40178;53.042;6.406;2022-12-10T00:22:24;-2.30;99.90
54264;DHT22;40178;53.042;6.406;2022-12-10T00:24:49;-2.20;99.90
54264;DHT22;40178;53.042;6.406;2022-12-10T00:27:15;-2.30;99.90
54264;DHT22;40178;53.042;6.406;2022-12-10T00:29:40;-2.40;99.90
54264;DHT22;40178;53.042;6.406;2022-12-10T00:32:06;-2.20;99.90
54264;DHT22;40178;53.042;6.406;2022-12-10T00:34:32;-2.30;99.90
54264;DHT22;40178;53.042;6.406;2022-12-10T00:36:57;-2.30;99.90
54264;DHT22;40178;53.042;6.406;2022-12-10T00:39:23;-2.40;99.90
54264;DHT22;40178;53.042;6.406;2022-12-10T00:41:49;-2.50;99.90
54264;DHT22;40178;53.042;6.406;2022-12-10T00:44:15;-2.30;99.90
54264;DHT22;40178;53.042;6.406;2022-12-10T00:46:41;-2.50;99.90
54264;DHT22;40178;53.042;6.406;2022-12-10T00:49:06;-2.50;99.90
54264;DHT22;40178;53.042;6.406;2022-12-10T00:51:32;-2.60;99.90
54264;DHT22;40178;53.042;6.406;2022-12-10T00:53:58;-2.70;99.90
54264;DHT22;40178;53.042;6.406;2022-12-10T00:56:29;-2.60;99.90
54264;DHT22;40178;53.042;6.406;2022-12-10T00:58:55;-2.60;99.90
54264;DHT22;40178;53.042;6.406;2022-12-10T01:01:39;-2.70;99.90
54264;DHT22;40178;53.042;6.406;2022-12-10T01:04:07;-2.60;99.90
54264;DHT22;40178;53.042;6.406;2022-12-10T01:06:36;-2.70;99.90
54264;DHT22;40178;53.042;6.406;2022-12-10T01:09:07;-2.70;99.90
54264;DHT22;40178;53.042;6.406;2022-12-10T01:11:36;-2.60;99.90
54264;DHT22;40178;53.042;6.406;2022-12-10T01:14:03;-2.60;99.90
54264;DHT22;40178;53.042;6.406;2022-12-10T01:16:29;-2.80;99.90
54264;DHT22;40178;53.042;6.406;2022-12-10T01:18:56;-2.80;99.90
54264;DHT22;40178;53.042;6.406;2022-12-10T01:21:23;-2.90;99.90
54264;DHT22;40178;53.042;6.406;2022-12-10T01:23:50;-2.90;99.90
54264;DHT22;40178;53.042;6.406;2022-12-10T01:26:28;-2.80;99.90
54264;DHT22;40178;53.042;6.406;2022-12-10T01:28:54;-2.90;99.90
54264;DHT22;40178;53.042;6.406;2022-12-10T01:31:23;-3.10;99.90
54264;DHT22;40178;53.042;6.406;2022-12-10T01:33:49;-3.00;99.90
54264;DHT22;40178;53.042;6.406;2022-12-10T01:36:29;-3.10;99.90
54264;DHT22;40178;53.042;6.406;2022-12-10T01:38:55;-3.00;99.90
54264;DHT22;40178;53.042;6.406;2022-12-10T01:41:26;-3.10;99.90
54264;DHT22;40178;53.042;6.406;2022-12-10T01:43:59;-3.20;99.90
54264;DHT22;40178;53.042;6.406;2022-12-10T01:46:28;-3.10;99.90
54264;DHT22;40178;53.042;6.406;2022-12-10T01:48:55;-3.10;99.90
54264;DHT22;40178;53.042;6.406;2022-12-10T01:51:21;-3.30;99.90
54264;DHT22;40178;53.042;6.406;2022-12-10T01:53:48;-3.20;99.90
54264;DHT22;40178;53.042;6.406;2022-12-10T01:56:16;-3.30;99.90
54264;DHT22;40178;53.042;6.406;2022-12-10T01:58:43;-3.20;99.90
54264;DHT22;40178;53.042;6.406;2022-12-10T02:01:16;-3.10;99.90
54264;DHT22;40178;53.042;6.406;2022-12-10T02:03:55;-3.10;99.90
54264;DHT22;40178;53.042;6.406;2022-12-10T02:09:28;-3.20;99.90
54264;DHT22;40178;53.042;6.406;2022-12-10T02:12:00;-3.20;99.90
54264;DHT22;40178;53.042;6.406;2022-12-10T02:14:51;-3.10;99.90
54264;DHT22;40178;53.042;6.406;2022-12-10T02:17:27;-3.20;99.90
54264;DHT22;40178;53.042;6.406;2022-12-10T02:20:19;-3.20;99.90
54264;DHT22;40178;53.042;6.406;2022-12-10T02:25:56;-3.20;99.90
54264;DHT22;40178;53.042;6.406;2022-12-10T02:28:36;-3.10;99.90
54264;DHT22;40178;53.042;6.406;2022-12-10T02:31:05;-3.10;99.90
54264;DHT22;40178;53.042;6.406;2022-12-10T02:33:33;-3.00;99.90
54264;DHT22;40178;53.042;6.406;2022-12-10T02:36:00;-3.00;99.90
54264;DHT22;40178;53.042;6.406;2022-12-10T02:38:29;-3.10;99.90
54264;DHT22;40178;53.042;6.406;2022-12-10T02:41:04;-3.10;99.90
54264;DHT22;40178;53.042;6.406;2022-12-10T02:43:31;-3.00;99.90
54264;DHT22;40178;53.042;6.406;2022-12-10T02:45:59;-3.10;99.90
54264;DHT22;40178;53.042;6.406;2022-12-10T02:48:27;-3.20;99.90
54264;DHT22;40178;53.042;6.406;2022-12-10T02:50:53;-3.10;99.90
54264;DHT22;40178;53.042;6.406;2022-12-10T02:53:19;-3.20;99.90
54264;DHT22;40178;53.042;6.406;2022-12-10T02:55:56;-3.20;99.90
54264;DHT22;40178;53.042;6.406;2022-12-10T02:58:39;-3.20;99.90
54264;DHT22;40178;53.042;6.406;2022-12-10T03:01:12;-3.30;99.90
54264;DHT22;40178;53.042;6.406;2022-12-10T03:03:49;-3.20;99.90
54264;DHT22;40178;53.042;6.406;2022-12-10T03:06:30;-3.20;99.90
54264;DHT22;40178;53.042;6.406;2022-12-10T03:09:08;-3.30;99.90
54264;DHT22;40178;53.042;6.406;2022-12-10T03:11:37;-3.20;99.90
54264;DHT22;40178;53.042;6.406;2022-12-10T03:14:12;-3.10;99.90
54264;DHT22;40178;53.042;6.406;2022-12-10T03:16:42;-3.10;99.90
54264;DHT22;40178;53.042;6.406;2022-12-10T03:19:14;-3.20;99.90
54264;DHT22;40178;53.042;6.406;2022-12-10T03:21:42;-3.10;99.90
54264;DHT22;40178;53.042;6.406;2022-12-10T03:24:09;-3.10;99.90
54264;DHT22;40178;53.042;6.406;2022-12-10T03:26:37;-3.10;99.90
54264;DHT22;40178;53.042;6.406;2022-12-10T03:29:13;-3.20;99.90
54264;DHT22;40178;53.042;6.406;2022-12-10T03:31:40;-3.20;99.90
54264;DHT22;40178;53.042;6.406;2022-12-10T03:34:07;-3.10;99.90
54264;DHT22;40178;53.042;6.406;2022-12-10T03:36:34;-3.10;99.90
54264;DHT22;40178;53.042;6.406;2022-12-10T03:39:00;-3.20;99.90
54264;DHT22;40178;53.042;6.406;2022-12-10T03:41:26;-3.20;99.90
54264;DHT22;40178;53.042;6.406;2022-12-10T03:43:59;-3.20;99.90
54264;DHT22;40178;53.042;6.406;2022-12-10T03:46:28;-3.30;99.90
54264;DHT22;40178;53.042;6.406;2022-12-10T03:48:54;-3.30;99.90
54264;DHT22;40178;53.042;6.406;2022-12-10T03:51:20;-3.30;99.90
54264;DHT22;40178;53.042;6.406;2022-12-10T03:53:46;-3.20;99.90
54264;DHT22;40178;53.042;6.406;2022-12-10T03:56:14;-3.20;99.90
54264;DHT22;40178;53.042;6.406;2022-12-10T03:58:40;-3.30;99.90
54264;DHT22;40178;53.042;6.406;2022-12-10T04:01:05;-3.30;99.90
54264;DHT22;40178;53.042;6.406;2022-12-10T04:03:35;-3.30;99.90
54264;DHT22;40178;53.042;6.406;2022-12-10T04:06:09;-3.40;99.90
54264;DHT22;40178;53.042;6.406;2022-12-10T04:08:35;-3.30;99.90
54264;DHT22;40178;53.042;6.406;2022-12-10T04:11:06;-3.30;99.90
54264;DHT22;40178;53.042;6.406;2022-12-10T04:13:36;-3.50;99.90
54264;DHT22;40178;53.042;6.406;2022-12-10T04:16:21;-3.50;99.90
54264;DHT22;40178;53.042;6.406;2022-12-10T04:19:03;-3.60;99.90
54264;DHT22;40178;53.042;6.406;2022-12-10T04:21:31;-3.60;99.90
54264;DHT22;40178;53.042;6.406;2022-12-10T04:24:17;-3.60;99.90
54264;DHT22;40178;53.042;6.406;2022-12-10T04:27:06;-3.60;99.90
54264;DHT22;40178;53.042;6.406;2022-12-10T04:29:33;-3.50;99.90
54264;DHT22;40178;53.042;6.406;2022-12-10T04:31:59;-3.50;99.90
54264;DHT22;40178;53.042;6.406;2022-12-10T04:34:25;-3.30;99.90
54264;DHT22;40178;53.042;6.406;2022-12-10T04:36:51;-3.30;99.90
54264;DHT22;40178;53.042;6.406;2022-12-10T04:39:17;-3.30;99.90
54264;DHT22;40178;53.042;6.406;2022-12-10T04:41:45;-3.30;99.90
54264;DHT22;40178;53.042;6.406;2022-12-10T04:44:11;-3.20;99.90
54264;DHT22;40178;53.042;6.406;2022-12-10T04:46:37;-3.10;99.90
54264;DHT22;40178;53.042;6.406;2022-12-10T04:49:03;-2.90;99.90
54264;DHT22;40178;53.042;6.406;2022-12-10T04:51:30;-2.80;99.90
54264;DHT22;40178;53.042;6.406;2022-12-10T04:53:56;-2.60;99.90
54264;DHT22;40178;53.042;6.406;2022-12-10T04:56:21;-2.70;99.90
54264;DHT22;40178;53.042;6.406;2022-12-10T04:58:47;-2.50;99.90
54264;DHT22;40178;53.042;6.406;2022-12-10T05:01:13;-2.60;99.90
54264;DHT22;40178;53.042;6.406;2022-12-10T05:03:39;-2.30;99.90
54264;DHT22;40178;53.042;6.406;2022-12-10T05:06:10;-2.30;99.90
54264;DHT22;40178;53.042;6.406;2022-12-10T05:08:38;-2.30;99.90
54264;DHT22;40178;53.042;6.406;2022-12-10T05:11:16;-2.10;99.90
54264;DHT22;40178;53.042;6.406;2022-12-10T05:13:44;-2.10;99.90
54264;DHT22;40178;53.042;6.406;2022-12-10T05:16:12;-2.10;99.90
54264;DHT22;40178;53.042;6.406;2022-12-10T05:18:39;-2.20;99.90
54264;DHT22;40178;53.042;6.406;2022-12-10T05:21:10;-2.20;99.90
54264;DHT22;40178;53.042;6.406;2022-12-10T05:23:37;-1.30;99.90
54264;DHT22;40178;53.042;6.406;2022-12-10T05:26:07;-1.60;99.90
54264;DHT22;40178;53.042;6.406;2022-12-10T05:28:36;-2.00;99.90
54264;DHT22;40178;53.042;6.406;2022-12-10T05:31:03;-2.10;99.90
54264;DHT22;40178;53.042;6.406;2022-12-10T05:33:29;-2.10;99.90
54264;DHT22;40178;53.042;6.406;2022-12-10T05:36:00;-1.30;99.90
54264;DHT22;40178;53.042;6.406;2022-12-10T05:38:27;-2.20;99.90
54264;DHT22;40178;53.042;6.406;2022-12-10T05:40:54;-2.00;99.90
54264;DHT22;40178;53.042;6.406;2022-12-10T05:43:20;-2.20;99.90
54264;DHT22;40178;53.042;6.406;2022-12-10T05:45:46;-2.00;99.90
54264;DHT22;40178;53.042;6.406;2022-12-10T05:48:14;-2.20;99.90
54264;DHT22;40178;53.042;6.406;2022-12-10T05:50:40;-2.00;99.90
54264;DHT22;40178;53.042;6.406;2022-12-10T05:53:06;-2.10;99.90
54264;DHT22;40178;53.042;6.406;2022-12-10T05:55:32;-2.20;99.90
54264;DHT22;40178;53.042;6.406;2022-12-10T05:58:01;-2.20;99.90
54264;DHT22;40178;53.042;6.406;2022-12-10T06:00:28;-2.10;99.90
54264;DHT22;40178;53.042;6.406;2022-12-10T06:02:54;-2.00;99.90
54264;DHT22;40178;53.042;6.406;2022-12-10T06:05:20;-2.20;99.90
54264;DHT22;40178;53.042;6.406;2022-12-10T06:07:46;-2.00;99.90
54264;DHT22;40178;53.042;6.406;2022-12-10T06:10:11;-2.00;99.90
54264;DHT22;40178;53.042;6.406;2022-12-10T06:12:38;-2.20;99.90
54264;DHT22;40178;53.042;6.406;2022-12-10T06:15:04;-2.20;99.90
54264;DHT22;40178;53.042;6.406;2022-12-10T06:17:30;-2.00;99.90
54264;DHT22;40178;53.042;6.406;2022-12-10T06:19:56;-2.10;99.90
54264;DHT22;40178;53.042;6.406;2022-12-10T06:22:22;-2.00;99.90
54264;DHT22;40178;53.042;6.406;2022-12-10T06:24:47;-2.00;99.90
54264;DHT22;40178;53.042;6.406;2022-12-10T06:27:13;-2.00;99.90
54264;DHT22;40178;53.042;6.406;2022-12-10T06:29:38;-2.20;99.90
54264;DHT22;40178;53.042;6.406;2022-12-10T06:32:04;-2.00;99.90
54264;DHT22;40178;53.042;6.406;2022-12-10T06:34:30;-2.10;99.90
54264;DHT22;40178;53.042;6.406;2022-12-10T06:36:55;-2.20;99.90
54264;DHT22;40178;53.042;6.406;2022-12-10T06:39:21;-1.90;99.90
54264;DHT22;40178;53.042;6.406;2022-12-10T06:41:46;-2.30;99.90
54264;DHT22;40178;53.042;6.406;2022-12-10T06:44:12;-2.20;99.90
54264;DHT22;40178;53.042;6.406;2022-12-10T06:46:39;-2.10;99.90
54264;DHT22;40178;53.042;6.406;2022-12-10T06:49:05;-2.30;99.90
54264;DHT22;40178;53.042;6.406;2022-12-10T06:51:31;-2.30;99.90
54264;DHT22;40178;53.042;6.406;2022-12-10T06:53:56;-2.30;99.90
54264;DHT22;40178;53.042;6.406;2022-12-10T06:56:22;-2.20;99.90
54264;DHT22;40178;53.042;6.406;2022-12-10T06:58:48;-2.20;99.90
54264;DHT22;40178;53.042;6.406;2022-12-10T07:01:24;-2.10;99.90
54264;DHT22;40178;53.042;6.406;2022-12-10T07:03:53;-2.20;99.90
54264;DHT22;40178;53.042;6.406;2022-12-10T07:06:21;-2.30;99.90
54264;DHT22;40178;53.042;6.406;2022-12-10T07:08:47;-2.40;99.90
54264;DHT22;40178;53.042;6.406;2022-12-10T07:11:15;-2.40;99.90
54264;DHT22;40178;53.042;6.406;2022-12-10T07:13:41;-2.20;99.90
54264;DHT22;40178;53.042;6.406;2022-12-10T07:16:21;-2.40;99.90
54264;DHT22;40178;53.042;6.406;2022-12-10T07:18:49;-2.20;99.90
54264;DHT22;40178;53.042;6.406;2022-12-10T07:21:21;-2.40;99.90
54264;DHT22;40178;53.042;6.406;2022-12-10T07:23:47;-2.20;99.90
54264;DHT22;40178;53.042;6.406;2022-12-10T07:26:13;-2.40;99.90
54264;DHT22;40178;53.042;6.406;2022-12-10T07:28:39;-2.20;99.90
54264;DHT22;40178;53.042;6.406;2022-12-10T07:31:07;-2.10;99.90
54264;DHT22;40178;53.042;6.406;2022-12-10T07:33:33;-2.20;99.90
54264;DHT22;40178;53.042;6.406;2022-12-10T07:35:58;-2.20;99.90
54264;DHT22;40178;53.042;6.406;2022-12-10T07:38:25;-2.20;99.90
54264;DHT22;40178;53.042;6.406;2022-12-10T07:40:51;-2.30;99.90
54264;DHT22;40178;53.042;6.406;2022-12-10T07:43:17;-2.20;99.90
54264;DHT22;40178;53.042;6.406;2022-12-10T07:45:43;-2.40;99.90
54264;DHT22;40178;53.042;6.406;2022-12-10T07:48:09;-2.20;99.90
54264;DHT22;40178;53.042;6.406;2022-12-10T07:50:35;-2.30;99.90
54264;DHT22;40178;53.042;6.406;2022-12-10T07:53:00;-2.30;99.90
54264;DHT22;40178;53.042;6.406;2022-12-10T07:55:26;-2.50;99.90
54264;DHT22;40178;53.042;6.406;2022-12-10T07:57:52;-2.20;99.90
54264;DHT22;40178;53.042;6.406;2022-12-10T08:00:17;-2.40;99.90
54264;DHT22;40178;53.042;6.406;2022-12-10T08:02:43;-2.30;99.90
54264;DHT22;40178;53.042;6.406;2022-12-10T08:05:09;-2.50;99.90
54264;DHT22;40178;53.042;6.406;2022-12-10T08:07:34;-2.20;99.90
54264;DHT22;40178;53.042;6.406;2022-12-10T08:10:00;-2.20;99.90
54264;DHT22;40178;53.042;6.406;2022-12-10T08:12:26;-2.20;99.90
54264;DHT22;40178;53.042;6.406;2022-12-10T08:14:52;-2.40;99.90
54264;DHT22;40178;53.042;6.406;2022-12-10T08:17:17;-2.40;99.90
54264;DHT22;40178;53.042;6.406;2022-12-10T08:19:43;-2.50;99.90
54264;DHT22;40178;53.042;6.406;2022-12-10T08:22:08;-2.50;99.90
54264;DHT22;40178;53.042;6.406;2022-12-10T08:24:34;-2.50;99.90
54264;DHT22;40178;53.042;6.406;2022-12-10T08:27:00;-2.30;99.90
54264;DHT22;40178;53.042;6.406;2022-12-10T08:29:25;-2.30;99.90
54264;DHT22;40178;53.042;6.406;2022-12-10T08:31:51;-2.20;99.90
54264;DHT22;40178;53.042;6.406;2022-12-10T08:34:18;-2.40;99.90
54264;DHT22;40178;53.042;6.406;2022-12-10T08:36:44;-1.80;99.90
54264;DHT22;40178;53.042;6.406;2022-12-10T08:39:10;-2.40;99.90
54264;DHT22;40178;53.042;6.406;2022-12-10T08:41:40;-2.50;99.90
54264;DHT22;40178;53.042;6.406;2022-12-10T08:44:06;-2.50;99.90
54264;DHT22;40178;53.042;6.406;2022-12-10T08:46:32;-2.50;99.90
54264;DHT22;40178;53.042;6.406;2022-12-10T08:48:58;-2.50;99.90
54264;DHT22;40178;53.042;6.406;2022-12-10T08:51:23;-2.40;99.90
54264;DHT22;40178;53.042;6.406;2022-12-10T08:53:49;-2.40;99.90
54264;DHT22;40178;53.042;6.406;2022-12-10T08:56:15;-2.50;99.90
54264;DHT22;40178;53.042;6.406;2022-12-10T08:58:41;-2.40;99.90
54264;DHT22;40178;53.042;6.406;2022-12-10T09:01:12;-2.20;99.90
54264;DHT22;40178;53.042;6.406;2022-12-10T09:03:38;-2.30;99.90
54264;DHT22;40178;53.042;6.406;2022-12-10T09:06:07;-2.50;99.90
54264;DHT22;40178;53.042;6.406;2022-12-10T09:08:34;-1.90;99.90
54264;DHT22;40178;53.042;6.406;2022-12-10T09:11:08;-2.20;99.90
54264;DHT22;40178;53.042;6.406;2022-12-10T09:13:34;-2.40;99.90
54264;DHT22;40178;53.042;6.406;2022-12-10T09:16:00;-2.40;99.90
54264;DHT22;40178;53.042;6.406;2022-12-10T09:18:25;-2.20;99.90
54264;DHT22;40178;53.042;6.406;2022-12-10T09:20:51;-2.00;99.90
54264;DHT22;40178;53.042;6.406;2022-12-10T09:23:17;-2.10;99.90
54264;DHT22;40178;53.042;6.406;2022-12-10T09:25:42;-2.30;99.90
54264;DHT22;40178;53.042;6.406;2022-12-10T09:28:08;-2.10;99.90
54264;DHT22;40178;53.042;6.406;2022-12-10T09:30:33;-2.10;99.90
54264;DHT22;40178;53.042;6.406;2022-12-10T09:32:59;-2.10;99.90
54264;DHT22;40178;53.042;6.406;2022-12-10T09:35:25;-2.10;99.90
54264;DHT22;40178;53.042;6.406;2022-12-10T09:37:50;-2.20;99.90
54264;DHT22;40178;53.042;6.406;2022-12-10T09:40:26;-2.20;99.90
54264;DHT22;40178;53.042;6.406;2022-12-10T09:43:05;-2.20;99.90
54264;DHT22;40178;53.042;6.406;2022-12-10T09:45:55;-1.90;99.90
54264;DHT22;40178;53.042;6.406;2022-12-10T09:48:47;-2.10;99.90
54264;DHT22;40178;53.042;6.406;2022-12-10T09:51:20;-2.10;99.90
54264;DHT22;40178;53.042;6.406;2022-12-10T09:53:47;-2.00;99.90
54264;DHT22;40178;53.042;6.406;2022-12-10T09:56:22;-2.00;99.90
54264;DHT22;40178;53.042;6.406;2022-12-10T09:58:48;-1.80;99.90
54264;DHT22;40178;53.042;6.406;2022-12-10T10:01:16;-2.00;99.90
54264;DHT22;40178;53.042;6.406;2022-12-10T10:03:43;-1.80;99.90
54264;DHT22;40178;53.042;6.406;2022-12-10T10:06:12;-1.70;99.90
54264;DHT22;40178;53.042;6.406;2022-12-10T10:08:42;-1.70;99.90
54264;DHT22;40178;53.042;6.406;2022-12-10T10:11:33;-1.80;99.90
54264;DHT22;40178;53.042;6.406;2022-12-10T10:14:27;-1.70;99.90
54264;DHT22;40178;53.042;6.406;2022-12-10T10:16:59;-1.70;99.90
54264;DHT22;40178;53.042;6.406;2022-12-10T10:19:34;-1.60;99.90
54264;DHT22;40178;53.042;6.406;2022-12-10T10:22:03;-1.50;99.90
54264;DHT22;40178;53.042;6.406;2022-12-10T10:24:35;-1.40;99.90
54264;DHT22;40178;53.042;6.406;2022-12-10T10:27:14;-1.60;99.90
54264;DHT22;40178;53.042;6.406;2022-12-10T10:29:40;-1.30;99.90
54264;DHT22;40178;53.042;6.406;2022-12-10T10:32:13;-1.30;99.90
54264;DHT22;40178;53.042;6.406;2022-12-10T10:34:40;-1.30;99.90
54264;DHT22;40178;53.042;6.406;2022-12-10T10:37:06;-1.60;99.90
54264;DHT22;40178;53.042;6.406;2022-12-10T10:39:33;-1.60;99.90
54264;DHT22;40178;53.042;6.406;2022-12-10T10:42:08;-1.30;99.90
54264;DHT22;40178;53.042;6.406;2022-12-10T10:44:37;-1.30;99.90
54264;DHT22;40178;53.042;6.406;2022-12-10T10:47:25;-1.30;99.90
54264;DHT22;40178;53.042;6.406;2022-12-10T10:49:51;-1.50;99.90
54264;DHT22;40178;53.042;6.406;2022-12-10T10:52:17;-1.20;99.90
54264;DHT22;40178;53.042;6.406;2022-12-10T10:54:44;-1.30;99.90
54264;DHT22;40178;53.042;6.406;2022-12-10T10:57:33;-1.20;99.90
54264;DHT22;40178;53.042;6.406;2022-12-10T11:00:20;-1.40;99.90
54264;DHT22;40178;53.042;6.406;2022-12-10T11:02:48;-1.50;99.90
54264;DHT22;40178;53.042;6.406;2022-12-10T11:05:21;-1.20;99.90
54264;DHT22;40178;53.042;6.406;2022-12-10T11:08:02;-1.30;99.90
54264;DHT22;40178;53.042;6.406;2022-12-10T11:10:28;-1.30;99.90
54264;DHT22;40178;53.042;6.406;2022-12-10T11:13:04;-1.40;99.90
54264;DHT22;40178;53.042;6.406;2022-12-10T11:15:38;-1.20;99.90
54264;DHT22;40178;53.042;6.406;2022-12-10T11:21:09;-1.10;99.90
54264;DHT22;40178;53.042;6.406;2022-12-10T11:23:47;-1.00;99.90
54264;DHT22;40178;53.042;6.406;2022-12-10T11:34:28;-1.20;99.90
54264;DHT22;40178;53.042;6.406;2022-12-10T11:50:50;-1.00;99.90
54264;DHT22;40178;53.042;6.406;2022-12-10T11:55:55;-1.00;99.90
54264;DHT22;40178;53.042;6.406;2022-12-10T12:03:55;-0.90;99.90
54264;DHT22;40178;53.042;6.406;2022-12-10T12:14:46;-0.90;99.90
54264;DHT22;40178;53.042;6.406;2022-12-10T12:17:31;-0.90;99.90
54264;DHT22;40178;53.042;6.406;2022-12-10T12:20:02;-1.00;99.90
54264;DHT22;40178;53.042;6.406;2022-12-10T12:22:35;-1.00;99.90
54264;DHT22;40178;53.042;6.406;2022-12-10T12:25:08;-0.80;99.90
54264;DHT22;40178;53.042;6.406;2022-12-10T12:27:48;-1.00;99.90
54264;DHT22;40178;53.042;6.406;2022-12-10T12:30:18;-0.70;99.90
54264;DHT22;40178;53.042;6.406;2022-12-10T12:40:51;-0.70;99.90
54264;DHT22;40178;53.042;6.406;2022-12-10T12:43:23;-0.60;99.90
54264;DHT22;40178;53.042;6.406;2022-12-10T12:45:54;-0.80;99.90
54264;DHT22;40178;53.042;6.406;2022-12-10T12:48:37;-1.00;99.90
54264;DHT22;40178;53.042;6.406;2022-12-10T12:51:10;-0.90;99.90
54264;DHT22;40178;53.042;6.406;2022-12-10T12:53:38;-0.60;99.90
54264;DHT22;40178;53.042;6.406;2022-12-10T13:01:36;-0.60;99.90
54264;DHT22;40178;53.042;6.406;2022-12-10T13:04:03;-0.80;99.90
54264;DHT22;40178;53.042;6.406;2022-12-10T13:06:33;-0.60;99.90
54264;DHT22;40178;53.042;6.406;2022-12-10T13:09:23;-0.60;99.90
54264;DHT22;40178;53.042;6.406;2022-12-10T13:19:50;-1.00;99.90
54264;DHT22;40178;53.042;6.406;2022-12-10T13:25:14;0.40;99.90
54264;DHT22;40178;53.042;6.406;2022-12-10T13:27:42;-0.70;99.90
54264;DHT22;40178;53.042;6.406;2022-12-10T13:37:53;-1.00;99.90
54264;DHT22;40178;53.042;6.406;2022-12-10T13:48:57;-0.70;99.90
54264;DHT22;40178;53.042;6.406;2022-12-10T13:51:38;-0.70;99.90
54264;DHT22;40178;53.042;6.406;2022-12-10T14:00:29;-0.60;99.90
54264;DHT22;40178;53.042;6.406;2022-12-10T14:08:28;-0.80;99.90
54264;DHT22;40178;53.042;6.406;2022-12-10T14:10:56;-0.80;99.90
54264;DHT22;40178;53.042;6.406;2022-12-10T14:13:46;-0.90;99.90
54264;DHT22;40178;53.042;6.406;2022-12-10T14:16:14;-0.60;99.90
54264;DHT22;40178;53.042;6.406;2022-12-10T14:18:55;-0.70;99.90
54264;DHT22;40178;53.042;6.406;2022-12-10T14:21:23;-0.80;99.90
54264;DHT22;40178;53.042;6.406;2022-12-10T14:23:50;-0.60;99.90
54264;DHT22;40178;53.042;6.406;2022-12-10T14:26:26;-0.70;99.90
54264;DHT22;40178;53.042;6.406;2022-12-10T14:29:02;-0.50;99.90
54264;DHT22;40178;53.042;6.406;2022-12-10T14:31:42;0.40;99.90
54264;DHT22;40178;53.042;6.406;2022-12-10T14:34:14;-0.50;99.90
54264;DHT22;40178;53.042;6.406;2022-12-10T14:36:46;-0.50;99.90
54264;DHT22;40178;53.042;6.406;2022-12-10T14:39:21;-0.50;99.90
54264;DHT22;40178;53.042;6.406;2022-12-10T14:41:48;-0.60;99.90
54264;DHT22;40178;53.042;6.406;2022-12-10T14:44:16;-0.50;99.90
54264;DHT22;40178;53.042;6.406;2022-12-10T14:46:43;-0.50;99.90
54264;DHT22;40178;53.042;6.406;2022-12-10T14:49:23;-0.50;99.90
54264;DHT22;40178;53.042;6.406;2022-12-10T14:51:49;-0.80;99.90
54264;DHT22;40178;53.042;6.406;2022-12-10T14:54:32;-0.70;99.90
54264;DHT22;40178;53.042;6.406;2022-12-10T14:57:01;-0.60;99.90
54264;DHT22;40178;53.042;6.406;2022-12-10T14:59:37;-0.60;99.90
54264;DHT22;40178;53.042;6.406;2022-12-10T15:02:15;-0.50;99.90
54264;DHT22;40178;53.042;6.406;2022-12-10T15:04:44;-0.40;99.90
54264;DHT22;40178;53.042;6.406;2022-12-10T15:07:18;-0.50;99.90
54264;DHT22;40178;53.042;6.406;2022-12-10T15:09:46;-0.40;99.90
54264;DHT22;40178;53.042;6.406;2022-12-10T15:15:10;-0.70;99.90
54264;DHT22;40178;53.042;6.406;2022-12-10T15:17:41;-0.50;99.90
54264;DHT22;40178;53.042;6.406;2022-12-10T15:20:20;-0.70;99.90
54264;DHT22;40178;53.042;6.406;2022-12-10T15:22:46;-0.60;99.90
54264;DHT22;40178;53.042;6.406;2022-12-10T15:25:21;-0.70;99.90
54264;DHT22;40178;53.042;6.406;2022-12-10T15:27:56;-0.50;99.90
54264;DHT22;40178;53.042;6.406;2022-12-10T15:30:36;-0.50;99.90
54264;DHT22;40178;53.042;6.406;2022-12-10T15:33:12;-0.50;99.90
54264;DHT22;40178;53.042;6.406;2022-12-10T15:35:41;-0.60;99.90
54264;DHT22;40178;53.042;6.406;2022-12-10T15:38:12;-0.40;99.90
54264;DHT22;40178;53.042;6.406;2022-12-10T15:40:38;-0.70;99.90
54264;DHT22;40178;53.042;6.406;2022-12-10T15:43:25;-0.70;99.90
54264;DHT22;40178;53.042;6.406;2022-12-10T15:45:51;-0.60;99.90
54264;DHT22;40178;53.042;6.406;2022-12-10T15:48:16;-0.70;99.90
54264;DHT22;40178;53.042;6.406;2022-12-10T15:50:43;-0.40;99.90
54264;DHT22;40178;53.042;6.406;2022-12-10T15:53:14;-0.40;99.90
54264;DHT22;40178;53.042;6.406;2022-12-10T15:55:42;-0.70;99.90
54264;DHT22;40178;53.042;6.406;2022-12-10T15:58:12;-0.80;99.90
54264;DHT22;40178;53.042;6.406;2022-12-10T16:00:38;-0.60;99.90
54264;DHT22;40178;53.042;6.406;2022-12-10T16:03:10;-0.50;99.90
54264;DHT22;40178;53.042;6.406;2022-12-10T16:05:37;-0.80;99.90
54264;DHT22;40178;53.042;6.406;2022-12-10T16:08:20;-0.70;99.90
54264;DHT22;40178;53.042;6.406;2022-12-10T16:10:48;-0.70;99.90
54264;DHT22;40178;53.042;6.406;2022-12-10T16:13:28;-0.90;99.90
54264;DHT22;40178;53.042;6.406;2022-12-10T16:16:04;-0.60;99.90
54264;DHT22;40178;53.042;6.406;2022-12-10T16:18:30;-0.60;99.90
54264;DHT22;40178;53.042;6.406;2022-12-10T16:20:56;-0.70;99.90
54264;DHT22;40178;53.042;6.406;2022-12-10T16:23:21;-0.80;99.90
54264;DHT22;40178;53.042;6.406;2022-12-10T16:25:47;-1.00;99.90
54264;DHT22;40178;53.042;6.406;2022-12-10T16:28:15;-1.00;99.90
54264;DHT22;40178;53.042;6.406;2022-12-10T16:30:47;-0.90;99.90
54264;DHT22;40178;53.042;6.406;2022-12-10T16:33:15;-0.70;99.90
54264;DHT22;40178;53.042;6.406;2022-12-10T16:35:43;-0.90;99.90
54264;DHT22;40178;53.042;6.406;2022-12-10T16:38:09;-0.60;99.90
54264;DHT22;40178;53.042;6.406;2022-12-10T16:40:35;-0.60;99.90
54264;DHT22;40178;53.042;6.406;2022-12-10T16:43:01;-0.70;99.90
54264;DHT22;40178;53.042;6.406;2022-12-10T16:45:36;-0.70;99.90
54264;DHT22;40178;53.042;6.406;2022-12-10T16:48:03;-0.80;99.90
54264;DHT22;40178;53.042;6.406;2022-12-10T16:50:29;-0.90;99.90
54264;DHT22;40178;53.042;6.406;2022-12-10T16:52:55;-0.60;99.90
54264;DHT22;40178;53.042;6.406;2022-12-10T16:55:25;-0.90;99.90
54264;DHT22;40178;53.042;6.406;2022-12-10T16:57:51;-0.70;99.90
54264;DHT22;40178;53.042;6.406;2022-12-10T17:00:24;-0.60;99.90
54264;DHT22;40178;53.042;6.406;2022-12-10T17:02:51;-0.60;99.90
54264;DHT22;40178;53.042;6.406;2022-12-10T17:05:33;-0.80;99.90
54264;DHT22;40178;53.042;6.406;2022-12-10T17:07:59;-0.60;99.90
54264;DHT22;40178;53.042;6.406;2022-12-10T17:10:25;-0.90;99.90
54264;DHT22;40178;53.042;6.406;2022-12-10T17:13:14;-1.00;99.90
54264;DHT22;40178;53.042;6.406;2022-12-10T17:15:41;-1.00;99.90
54264;DHT22;40178;53.042;6.406;2022-12-10T17:18:15;-0.80;99.90
54264;DHT22;40178;53.042;6.406;2022-12-10T17:20:43;-0.70;99.90
54264;DHT22;40178;53.042;6.406;2022-12-10T17:23:08;-0.90;99.90
54264;DHT22;40178;53.042;6.406;2022-12-10T17:25:35;-0.70;99.90
54264;DHT22;40178;53.042;6.406;2022-12-10T17:28:01;-0.70;99.90